Time;durP1;ratioP1;P1;durP2;ratioP2;P2;SDS_P1;SDS_P2;PMS_P1;PMS_P2;Temp;Humidity;BMP_temperature;BMP_pressure;BME280_temperature;BME280_humidity;BME280_pressure;Samples;Min_cycle;Max_cycle;Signal;HPM_P1;HPM_P2
2021/12/25 00:02:11;;;;;;;;;;;;;;;-7.97;100.00;100190.59;5031022;28;1026;-74
2021/12/25 00:04:38;;;;;;;;;;;;;;;-8.03;100.00;100194.19;5030687;28;1288;-71
2021/12/25 00:07:04;;;;;;;;;;;;;;;-8.10;100.00;100195.13;5012945;28;1197;-73
2021/12/25 00:09:30;;;;;;;;;;;;;;;-8.14;100.00;100201.34;5031088;28;1914;-73
2021/12/25 00:11:56;;;;;;;;;;;;;;;-8.23;100.00;100215.47;5013219;28;1310;-74
2021/12/25 00:14:23;;;;;;;;;;;;;;;-8.26;100.00;100219.06;5030463;28;1326;-73
2021/12/25 00:16:50;;;;;;;;;;;;;;;-8.30;100.00;100225.22;5029404;28;904;-73
2021/12/25 00:19:17;;;;;;;;;;;;;;;-8.32;100.00;100224.38;5030864;28;950;-71
2021/12/25 00:21:43;;;;;;;;;;;;;;;-8.37;100.00;100231.47;5029511;28;1136;-72
2021/12/25 00:24:10;;;;;;;;;;;;;;;-8.42;100.00;100234.16;5030574;28;1402;-73
2021/12/25 00:26:44;;;;;;;;;;;;;;;-8.45;100.00;100228.09;5029273;28;959;-74
2021/12/25 00:32:08;;;;;;;;;;;;;;;-8.50;100.00;100236.00;5030625;28;1632;-73
2021/12/25 00:34:34;;;;;;;;;;;;;;;-8.50;100.00;100246.53;5013270;28;1332;-72
2021/12/25 00:37:00;;;;;;;;;;;;;;;-8.52;100.00;100234.28;5012732;28;1142;-73
2021/12/25 00:39:29;;;;;;;;;;;;;;;-8.46;100.00;100242.13;5029097;28;1503;-72
2021/12/25 00:41:55;;;;;;;;;;;;;;;-8.47;100.00;100243.00;5030684;28;959;-74
2021/12/25 00:44:22;;;;;;;;;;;;;;;-8.54;100.00;100244.84;5029207;28;1353;-73
2021/12/25 00:46:48;;;;;;;;;;;;;;;-8.53;100.00;100253.63;5029002;28;923;-72
2021/12/25 00:49:16;;;;;;;;;;;;;;;-8.55;100.00;100260.66;5029223;28;1915;-74
2021/12/25 00:51:42;;;;;;;;;;;;;;;-8.57;100.00;100258.03;5029629;28;754;-73
2021/12/25 00:54:09;;;;;;;;;;;;;;;-8.60;100.00;100263.34;5029055;28;1147;-74
2021/12/25 00:56:35;;;;;;;;;;;;;;;-8.61;100.00;100261.59;5030151;28;1373;-73
2021/12/25 00:59:02;;;;;;;;;;;;;;;-8.65;100.00;100271.28;5012799;28;1320;-73
2021/12/25 01:01:28;;;;;;;;;;;;;;;-8.68;100.00;100271.31;5029150;28;958;-74
2021/12/25 01:03:54;;;;;;;;;;;;;;;-8.70;100.00;100278.34;5031304;28;1026;-72
2021/12/25 01:06:22;;;;;;;;;;;;;;;-8.72;100.00;100285.38;5024642;23;3732;-75
2021/12/25 01:08:48;;;;;;;;;;;;;;;-8.72;100.00;100281.88;5025819;28;1268;-75
2021/12/25 01:11:18;;;;;;;;;;;;;;;-8.72;100.00;100282.75;5025989;28;1982;-74
2021/12/25 01:13:49;;;;;;;;;;;;;;;-8.75;100.00;100290.69;5009446;28;1034;-75
2021/12/25 01:16:55;;;;;;;;;;;;;;;-8.82;100.00;100297.72;5025550;28;1397;-74
2021/12/25 01:19:37;;;;;;;;;;;;;;;-8.86;100.00;100300.41;5009215;28;1117;-74
2021/12/25 01:22:25;;;;;;;;;;;;;;;-8.86;100.00;100306.53;5009330;28;943;-74
2021/12/25 01:28:12;;;;;;;;;;;;;;;-8.81;100.00;100311.78;5011665;28;1154;-74
2021/12/25 01:30:49;;;;;;;;;;;;;;;-8.74;100.00;100313.47;5012545;28;1911;-75
2021/12/25 01:33:43;;;;;;;;;;;;;;;-8.65;100.00;100321.28;5029370;28;995;-75
2021/12/25 01:36:43;;;;;;;;;;;;;;;-8.59;100.00;100329.13;5013655;28;1349;-75
2021/12/25 01:39:51;;;;;;;;;;;;;;;-8.66;100.00;100332.69;5013861;28;959;-74
2021/12/25 01:48:41;;;;;;;;;;;;;;;-8.81;100.00;100338.97;5029150;28;939;-73
2021/12/25 01:51:08;;;;;;;;;;;;;;;-8.77;100.00;100340.69;5029077;28;1898;-75
2021/12/25 01:53:34;;;;;;;;;;;;;;;-8.77;100.00;100337.19;5028905;28;746;-74
2021/12/25 01:56:03;;;;;;;;;;;;;;;-8.82;100.00;100352.13;5013287;28;1346;-75
2021/12/25 01:58:29;;;;;;;;;;;;;;;-8.94;100.00;100353.97;5028916;28;785;-74
2021/12/25 02:00:58;;;;;;;;;;;;;;;-8.97;100.00;100356.63;5028850;28;1078;-74
2021/12/25 02:03:27;;;;;;;;;;;;;;;-9.03;100.00;100353.16;5012404;28;872;-75
2021/12/25 02:05:55;;;;;;;;;;;;;;;-9.11;100.00;100355.88;5028290;28;1412;-73
2021/12/25 02:08:26;;;;;;;;;;;;;;;-9.18;100.00;100348.88;5028960;28;1306;-75
2021/12/25 02:10:53;;;;;;;;;;;;;;;-9.26;100.00;100362.97;5028419;28;1979;-76
2021/12/25 02:13:22;;;;;;;;;;;;;;;-9.31;100.00;100363.84;5028441;28;1418;-75
2021/12/25 02:15:51;;;;;;;;;;;;;;;-9.32;100.00;100368.25;5028154;28;1314;-74
2021/12/25 02:18:26;;;;;;;;;;;;;;;-9.37;100.00;100370.00;5028835;28;1046;-75
2021/12/25 02:21:11;;;;;;;;;;;;;;;-9.38;100.00;100372.66;5011816;28;1178;-75
2021/12/25 02:23:39;;;;;;;;;;;;;;;-9.47;100.00;100374.44;5028338;28;1003;-75
2021/12/25 02:26:06;;;;;;;;;;;;;;;-9.49;100.00;100380.59;5027104;28;1293;-74
2021/12/25 02:28:33;;;;;;;;;;;;;;;-9.55;100.00;100380.63;5028407;28;1002;-75
2021/12/25 02:31:02;;;;;;;;;;;;;;;-9.59;100.00;100385.03;5028034;28;1976;-74
2021/12/25 02:33:28;;;;;;;;;;;;;;;-9.57;100.00;100382.38;5011788;28;927;-73
2021/12/25 02:35:55;;;;;;;;;;;;;;;-9.60;100.00;100381.50;5011239;28;1373;-75
2021/12/25 02:38:23;;;;;;;;;;;;;;;-9.65;100.00;100391.16;5027658;28;1685;-75
2021/12/25 02:40:50;;;;;;;;;;;;;;;-9.68;100.00;100391.19;5011572;28;978;-74
2021/12/25 02:43:17;;;;;;;;;;;;;;;-9.73;100.00;100395.56;4995408;28;1423;-75
2021/12/25 02:45:43;;;;;;;;;;;;;;;-9.79;100.00;100393.00;5011371;28;1314;-74
2021/12/25 02:48:11;;;;;;;;;;;;;;;-9.83;100.00;100402.63;5012831;28;1025;-75
2021/12/25 02:50:39;;;;;;;;;;;;;;;-9.81;100.00;100395.59;5011313;28;1977;-75
2021/12/25 02:53:07;;;;;;;;;;;;;;;-9.79;100.00;100408.75;5011628;28;936;-76
2021/12/25 02:55:35;;;;;;;;;;;;;;;-9.72;100.00;100399.09;5011446;28;1318;-75
2021/12/25 02:58:02;;;;;;;;;;;;;;;-9.79;100.00;100407.00;5011168;28;1038;-73
2021/12/25 03:00:33;;;;;;;;;;;;;;;-9.80;100.00;100396.50;4994755;28;1007;-74
2021/12/25 03:03:01;;;;;;;;;;;;;;;-9.83;100.00;100407.00;5011031;28;1180;-74
2021/12/25 03:05:27;;;;;;;;;;;;;;;-9.87;100.00;100407.88;5010783;28;1291;-74
2021/12/25 03:07:54;;;;;;;;;;;;;;;-9.90;100.00;100411.38;5010590;28;1042;-74
2021/12/25 03:10:23;;;;;;;;;;;;;;;-9.93;100.00;100416.66;5011002;28;1911;-73
2021/12/25 03:12:54;;;;;;;;;;;;;;;-9.95;100.00;100418.44;5027356;28;1299;-73
2021/12/25 03:15:28;;;;;;;;;;;;;;;-9.99;100.00;100417.53;5006932;28;2197;-75
2021/12/25 03:17:56;;;;;;;;;;;;;;;-10.00;100.00;100415.78;5010746;28;1136;-75
2021/12/25 03:20:22;;;;;;;;;;;;;;;-10.02;100.00;100411.41;5010684;28;1296;-74
2021/12/25 03:22:49;;;;;;;;;;;;;;;-10.04;100.00;100413.19;5010766;28;777;-76
2021/12/25 03:25:16;;;;;;;;;;;;;;;-10.04;100.00;100419.31;5010881;28;1338;-76
2021/12/25 03:27:44;;;;;;;;;;;;;;;-10.03;100.00;100428.03;5010552;28;1049;-75
2021/12/25 03:30:14;;;;;;;;;;;;;;;-10.04;100.00;100427.19;5010607;28;1911;-76
2021/12/25 03:32:40;;;;;;;;;;;;;;;-10.05;100.00;100427.19;5010629;28;968;-74
2021/12/25 03:35:07;;;;;;;;;;;;;;;-10.07;100.00;100423.69;5011871;28;1312;-75
2021/12/25 03:37:33;;;;;;;;;;;;;;;-10.10;100.00;100427.19;5011925;28;971;-75
2021/12/25 03:40:00;;;;;;;;;;;;;;;-10.10;100.00;100429.81;5010636;28;849;-76
2021/12/25 03:42:26;;;;;;;;;;;;;;;-10.13;100.00;100433.34;5011508;28;991;-75
2021/12/25 03:44:52;;;;;;;;;;;;;;;-10.16;100.00;100435.94;5011278;28;1312;-74
2021/12/25 03:47:27;;;;;;;;;;;;;;;-10.15;100.00;100432.44;5010047;28;867;-74
2021/12/25 03:58:07;;;;;;;;;;;;;;;-10.17;100.00;100435.94;5010233;28;979;-74
2021/12/25 04:00:34;;;;;;;;;;;;;;;-10.16;100.00;100445.59;5010282;28;805;-75
2021/12/25 04:03:06;;;;;;;;;;;;;;;-10.17;100.00;100449.09;5011112;28;781;-73
2021/12/25 04:05:41;;;;;;;;;;;;;;;-10.19;100.00;100450.84;5009412;28;1408;-75
2021/12/25 04:08:10;;;;;;;;;;;;;;;-10.22;100.00;100456.09;5009800;28;999;-73
2021/12/25 04:10:38;;;;;;;;;;;;;;;-10.30;100.00;100454.34;5010177;28;1914;-75
2021/12/25 04:13:06;;;;;;;;;;;;;;;-10.35;100.00;100450.88;5010211;28;793;-75
2021/12/25 04:15:32;;;;;;;;;;;;;;;-10.39;100.00;100449.13;5011329;28;1371;-74
2021/12/25 04:17:59;;;;;;;;;;;;;;;-10.42;100.00;100451.75;4993336;28;1151;-75
2021/12/25 04:20:27;;;;;;;;;;;;;;;-10.44;100.00;100459.63;5011189;28;979;-74
2021/12/25 04:22:58;;;;;;;;;;;;;;;-10.47;100.00;100453.50;5009706;28;1050;-73
2021/12/25 04:25:27;;;;;;;;;;;;;;;-10.49;100.00;100460.50;5009812;28;1330;-73
2021/12/25 04:27:55;;;;;;;;;;;;;;;-10.53;100.00;100458.75;5011338;28;860;-76
2021/12/25 04:30:31;;;;;;;;;;;;;;;-10.59;100.00;100472.75;5009900;28;1914;-75
2021/12/25 04:33:28;;;;;;;;;;;;;;;-10.64;100.00;100470.09;5009751;28;1077;-74
2021/12/25 04:50:05;;;;;;;;;;;;;;;-10.62;100.00;100476.22;5006486;28;1189;-75
2021/12/25 05:03:50;;;;;;;;;;;;;;;-10.70;100.00;100475.34;5010417;28;1261;-74
2021/12/25 05:06:25;;;;;;;;;;;;;;;-10.67;100.00;100484.97;4993725;28;1314;-75
2021/12/25 05:08:54;;;;;;;;;;;;;;;-10.67;100.00;100480.59;4993627;28;994;-75
2021/12/25 05:11:20;;;;;;;;;;;;;;;-10.68;100.00;100478.84;4993514;28;1977;-75
2021/12/25 05:13:49;;;;;;;;;;;;;;;-10.69;100.00;100481.47;4994741;28;766;-73
2021/12/25 05:16:16;;;;;;;;;;;;;;;-10.71;100.00;100484.09;4993248;28;1484;-74
2021/12/25 05:18:43;;;;;;;;;;;;;;;-10.72;100.00;100481.47;4993591;28;1066;-75
2021/12/25 05:21:10;;;;;;;;;;;;;;;-10.73;100.00;100483.19;4993803;28;730;-74
2021/12/25 05:23:37;;;;;;;;;;;;;;;-10.73;100.00;100488.44;4993334;28;1090;-73
2021/12/25 05:26:05;;;;;;;;;;;;;;;-10.74;100.00;100491.97;4993060;28;1279;-73
2021/12/25 05:28:39;;;;;;;;;;;;;;;-10.77;100.00;100492.81;4993178;28;865;-73
2021/12/25 05:31:07;;;;;;;;;;;;;;;-10.78;100.00;100485.81;4993337;28;1914;-74
2021/12/25 05:33:46;;;;;;;;;;;;;;;-10.77;100.00;100489.31;4993370;28;913;-73
2021/12/25 05:36:24;;;;;;;;;;;;;;;-10.78;100.00;100503.31;4992975;28;1314;-74
2021/12/25 05:39:11;;;;;;;;;;;;;;;-10.78;100.00;100501.56;4993151;28;959;-74
2021/12/25 05:41:40;;;;;;;;;;;;;;;-10.73;100.00;100511.19;4992848;28;1157;-72
2021/12/25 05:44:13;;;;;;;;;;;;;;;-10.72;100.00;100513.81;4993574;28;1192;-73
2021/12/25 05:46:49;;;;;;;;;;;;;;;-10.70;100.00;100517.31;4993084;28;1291;-74
2021/12/25 05:49:17;;;;;;;;;;;;;;;-10.70;100.00;100513.81;4992961;28;1159;-72
2021/12/25 05:52:04;;;;;;;;;;;;;;;-10.71;100.00;100512.94;4992866;28;1958;-74
2021/12/25 05:54:53;;;;;;;;;;;;;;;-10.76;100.00;100512.06;4992812;28;1341;-73
2021/12/25 05:57:39;;;;;;;;;;;;;;;-10.77;100.00;100516.44;4992404;28;1263;-72
2021/12/25 06:00:40;;;;;;;;;;;;;;;-10.80;100.00;100512.91;4971835;28;1185;-73
2021/12/25 06:03:07;;;;;;;;;;;;;;;-10.83;100.00;100507.66;4984629;28;1115;-74
2021/12/25 06:05:37;;;;;;;;;;;;;;;-10.91;100.00;100512.00;4992564;28;1299;-74
2021/12/25 06:08:04;;;;;;;;;;;;;;;-10.98;100.00;100512.00;4992995;28;1450;-74
2021/12/25 06:10:30;;;;;;;;;;;;;;;-11.01;100.00;100514.63;4992609;28;1073;-73
2021/12/25 06:13:00;;;;;;;;;;;;;;;-11.03;100.00;100520.72;4991403;28;2157;-73
2021/12/25 06:15:30;;;;;;;;;;;;;;;-11.01;100.00;100521.59;4992041;28;1393;-74
2021/12/25 06:18:04;;;;;;;;;;;;;;;-11.04;100.00;100517.19;4992343;28;1197;-74
2021/12/25 06:20:35;;;;;;;;;;;;;;;-11.07;100.00;100517.19;5004111;28;1433;-73
2021/12/25 06:23:19;;;;;;;;;;;;;;;-11.10;100.00;100517.19;5006933;28;1210;-73
2021/12/25 06:26:04;;;;;;;;;;;;;;;-11.07;100.00;100525.06;4998987;28;1338;-73
2021/12/25 06:28:49;;;;;;;;;;;;;;;-11.04;100.00;100522.44;5004968;28;1499;-72
2021/12/25 06:31:30;;;;;;;;;;;;;;;-11.03;100.00;100525.97;4993799;28;1918;-73
2021/12/25 06:34:03;;;;;;;;;;;;;;;-11.04;100.00;100535.56;5011266;28;1520;-73
2021/12/25 06:36:40;;;;;;;;;;;;;;;-11.04;100.00;100534.69;5011049;28;1557;-75
2021/12/25 06:39:27;;;;;;;;;;;;;;;-11.06;100.00;100528.56;5008594;28;1598;-77
2021/12/25 06:42:01;;;;;;;;;;;;;;;-11.08;100.00;100531.19;5011422;28;1605;-75
2021/12/25 06:44:29;;;;;;;;;;;;;;;-11.09;100.00;100537.28;4994863;28;1512;-75
2021/12/25 06:46:56;;;;;;;;;;;;;;;-11.12;100.00;100539.91;5010950;28;1511;-74
2021/12/25 06:49:24;;;;;;;;;;;;;;;-11.18;100.00;100542.47;5027827;28;1642;-72
2021/12/25 06:52:09;;;;;;;;;;;;;;;-11.21;100.00;100556.47;5011913;28;1977;-74
2021/12/25 06:54:44;;;;;;;;;;;;;;;-11.23;100.00;100554.72;5005618;28;1464;-75
2021/12/25 06:57:18;;;;;;;;;;;;;;;-11.23;100.00;100554.72;5010884;28;1554;-74
2021/12/25 06:59:46;;;;;;;;;;;;;;;-11.25;100.00;100561.69;5011119;28;848;-73
2021/12/25 07:02:13;;;;;;;;;;;;;;;-11.24;100.00;100556.44;5010617;28;1519;-73
2021/12/25 07:04:58;;;;;;;;;;;;;;;-11.24;100.00;100551.19;5011309;28;1383;-76
2021/12/25 07:07:44;;;;;;;;;;;;;;;-11.27;100.00;100554.69;5037120;23;3608;-74
2021/12/25 07:10:29;;;;;;;;;;;;;;;-11.25;100.00;100556.44;5031944;28;1007;-72
2021/12/25 07:13:19;;;;;;;;;;;;;;;-11.29;100.00;100553.81;5029465;28;1451;-72
2021/12/25 07:15:57;;;;;;;;;;;;;;;-11.30;100.00;100562.53;5030362;28;1534;-72
2021/12/25 07:18:28;;;;;;;;;;;;;;;-11.35;100.00;100560.75;5030423;28;1690;-73
2021/12/25 07:21:32;;;;;;;;;;;;;;;-11.32;100.00;100568.63;5004299;28;1294;-74
2021/12/25 07:24:14;;;;;;;;;;;;;;;-11.29;100.00;100569.53;5037624;28;1549;-73
2021/12/25 07:26:47;;;;;;;;;;;;;;;-11.20;100.00;100570.44;5030470;28;1331;-74
2021/12/25 07:29:23;;;;;;;;;;;;;;;-11.08;100.00;100580.13;5030667;28;1643;-75
2021/12/25 07:31:50;;;;;;;;;;;;;;;-10.98;100.00;100584.53;5032154;28;1935;-76
2021/12/25 07:34:17;;;;;;;;;;;;;;;-10.89;100.00;100581.94;5031488;28;1513;-75
2021/12/25 07:36:43;;;;;;;;;;;;;;;-10.78;100.00;100571.53;5031622;28;1411;-76
2021/12/25 07:39:09;;;;;;;;;;;;;;;-10.68;100.00;100573.28;5030102;28;1471;-73
2021/12/25 07:41:35;;;;;;;;;;;;;;;-10.58;100.00;100574.22;5030389;28;802;-76
2021/12/25 07:44:04;;;;;;;;;;;;;;;-10.50;100.00;100574.19;5030613;28;1569;-74
2021/12/25 07:46:39;;;;;;;;;;;;;;;-10.45;100.00;100581.25;5029818;28;1463;-72
2021/12/25 07:49:07;;;;;;;;;;;;;;;-10.41;100.00;100573.38;5031033;28;1636;-74
2021/12/25 07:51:33;;;;;;;;;;;;;;;-10.34;100.00;100577.72;5030596;28;1961;-74
2021/12/25 07:53:59;;;;;;;;;;;;;;;-10.26;100.00;100583.84;5025823;28;1220;-73
2021/12/25 07:56:26;;;;;;;;;;;;;;;-10.18;100.00;100590.00;5030639;28;1426;-73
2021/12/25 07:58:53;;;;;;;;;;;;;;;-10.08;100.00;100596.13;5030916;28;1622;-79
2021/12/25 08:01:19;;;;;;;;;;;;;;;-9.98;100.00;100604.91;5029948;28;899;-75
2021/12/25 08:03:45;;;;;;;;;;;;;;;-9.83;100.00;100602.28;5031040;28;1525;-74
2021/12/25 08:06:13;;;;;;;;;;;;;;;-9.71;100.00;100601.41;5030888;28;883;-74
2021/12/25 08:08:39;;;;;;;;;;;;;;;-9.61;100.00;100597.03;5030846;28;1504;-75
2021/12/25 08:11:05;;;;;;;;;;;;;;;-9.57;100.00;100598.78;5022264;28;1501;-75
2021/12/25 08:13:32;;;;;;;;;;;;;;;-9.52;100.00;100593.53;5029549;28;1977;-76
2021/12/25 08:15:58;;;;;;;;;;;;;;;-9.40;100.00;100597.91;5031245;28;1537;-75
2021/12/25 08:18:24;;;;;;;;;;;;;;;-9.31;100.00;100606.63;5029575;28;1296;-74
2021/12/25 08:21:09;;;;;;;;;;;;;;;-9.06;100.00;100601.31;5030073;28;1533;-72
2021/12/25 08:24:09;;;;;;;;;;;;;;;-8.59;100.00;100607.28;5029828;28;1192;-74
2021/12/25 08:26:54;;;;;;;;;;;;;;;-8.08;100.00;100612.25;5029186;28;1482;-74
2021/12/25 08:29:40;;;;;;;;;;;;;;;-7.63;100.00;100609.28;5023054;28;1249;-74
2021/12/25 08:32:25;;;;;;;;;;;;;;;-7.19;100.00;100615.91;5030597;28;1977;-75
2021/12/25 08:35:11;;;;;;;;;;;;;;;-6.57;100.00;100608.19;5019227;28;1485;-75
2021/12/25 08:37:40;;;;;;;;;;;;;;;-5.98;100.00;100611.81;5027696;28;1540;-75
2021/12/25 08:40:09;;;;;;;;;;;;;;;-5.55;100.00;100608.44;5028610;28;1552;-73
2021/12/25 08:42:35;;;;;;;;;;;;;;;-5.32;100.00;100608.03;5028472;28;1556;-73
2021/12/25 08:45:19;;;;;;;;;;;;;;;-5.13;100.00;100600.66;5029693;28;1561;-74
2021/12/25 08:47:46;;;;;;;;;;;;;;;-4.94;100.00;100605.63;5026746;28;1527;-74
2021/12/25 08:50:12;;;;;;;;;;;;;;;-5.03;100.00;100606.66;5029550;28;1513;-74
2021/12/25 08:52:38;;;;;;;;;;;;;;;-4.83;100.00;100608.91;5030018;28;1918;-76
2021/12/25 08:55:06;;;;;;;;;;;;;;;-4.92;100.00;100594.09;5030568;28;1010;-76
2021/12/25 08:57:34;;;;;;;;;;;;;;;-4.96;100.00;100600.31;5028358;28;1428;-73
2021/12/25 09:00:00;;;;;;;;;;;;;;;-5.05;100.00;100601.38;5030508;28;776;-74
2021/12/25 09:02:27;;;;;;;;;;;;;;;-4.78;100.00;100598.25;5029948;28;1061;-74
2021/12/25 09:04:53;;;;;;;;;;;;;;;-4.64;100.00;100605.91;5030284;28;987;-76
2021/12/25 09:07:21;;;;;;;;;;;;;;;-4.44;100.00;100603.69;5029724;28;1321;-76
2021/12/25 09:09:47;;;;;;;;;;;;;;;-4.23;100.00;100612.97;5030318;28;995;-75
2021/12/25 09:12:16;;;;;;;;;;;;;;;-3.80;100.00;100623.53;5030060;28;1978;-75
2021/12/25 09:14:44;;;;;;;;;;;;;;;-3.24;100.00;100615.94;5028866;28;2045;-75
2021/12/25 09:17:10;;;;;;;;;;;;;;;-2.70;100.00;100606.53;5028756;28;1506;-74
2021/12/25 09:19:37;;;;;;;;;;;;;;;-2.29;100.00;100608.88;5028570;28;1298;-76
2021/12/25 09:22:04;;;;;;;;;;;;;;;-1.85;100.00;100613.75;5029198;28;1659;-74
2021/12/25 09:24:30;;;;;;;;;;;;;;;-1.56;100.00;100619.94;5030103;28;817;-75
2021/12/25 09:26:57;;;;;;;;;;;;;;;-1.20;100.00;100624.97;5029504;28;1591;-74
2021/12/25 09:29:23;;;;;;;;;;;;;;;-0.74;100.00;100631.34;5030161;28;1077;-78
2021/12/25 09:31:51;;;;;;;;;;;;;;;-1.01;100.00;100626.06;5029768;28;1977;-77
2021/12/25 09:34:17;;;;;;;;;;;;;;;-1.02;100.00;100623.47;5029664;28;1513;-74
2021/12/25 09:36:44;;;;;;;;;;;;;;;-0.98;100.00;100622.41;5025861;28;1538;-75
2021/12/25 09:39:10;;;;;;;;;;;;;;;-0.77;100.00;100633.28;5029208;28;1303;-74
2021/12/25 09:41:37;;;;;;;;;;;;;;;-1.04;100.00;100627.97;5029311;28;1657;-76
2021/12/25 09:44:05;;;;;;;;;;;;;;;-0.87;100.00;100628.25;5029857;28;995;-74
2021/12/25 09:46:31;;;;;;;;;;;;;;;-0.78;100.00;100620.84;5029211;28;1605;-74
2021/12/25 09:48:59;;;;;;;;;;;;;;;-0.78;100.00;100621.72;5033570;28;726;-75
2021/12/25 09:51:25;;;;;;;;;;;;;;;-0.40;100.00;100622.13;5031910;28;1490;-75
2021/12/25 09:53:55;;;;;;;;;;;;;;;-0.59;100.00;100618.38;5033294;28;1906;-74
2021/12/25 09:56:21;;;;;;;;;;;;;;;-0.50;100.00;100631.38;5031389;28;1525;-77
2021/12/25 09:58:48;;;;;;;;;;;;;;;-0.42;100.00;100629.31;5032981;28;1548;-76
2021/12/25 10:01:31;;;;;;;;;;;;;;;-0.72;100.00;100632.16;5031688;28;1653;-76
2021/12/25 10:04:00;;;;;;;;;;;;;;;-1.02;100.00;100628.78;5033282;28;1022;-75
2021/12/25 10:06:30;;;;;;;;;;;;;;;-1.14;100.00;100631.88;5030847;28;1597;-75
2021/12/25 10:08:57;;;;;;;;;;;;;;;-1.45;100.00;100633.78;5033344;28;1457;-77
2021/12/25 10:11:25;;;;;;;;;;;;;;;-1.85;100.00;100632.38;5032924;28;1521;-76
2021/12/25 10:13:54;;;;;;;;;;;;;;;-2.14;100.00;100638.59;5031562;28;1918;-75
2021/12/25 10:16:22;;;;;;;;;;;;;;;-2.06;100.00;100644.56;5032650;28;1556;-76
2021/12/25 10:18:48;;;;;;;;;;;;;;;-2.16;100.00;100651.06;5032842;28;791;-76
2021/12/25 10:21:20;;;;;;;;;;;;;;;-2.27;100.00;100643.41;5031566;28;1530;-75
2021/12/25 10:24:01;;;;;;;;;;;;;;;-2.31;100.00;100639.09;5012881;28;852;-75
2021/12/25 10:26:28;;;;;;;;;;;;;;;-2.47;100.00;100639.56;5012742;28;1322;-76
2021/12/25 10:28:54;;;;;;;;;;;;;;;-2.64;100.00;100628.53;5028190;28;1564;-77
2021/12/25 10:31:29;;;;;;;;;;;;;;;-3.09;100.00;100643.00;5030971;28;1596;-76
2021/12/25 10:33:55;;;;;;;;;;;;;;;-3.12;100.00;100643.09;5032348;28;1926;-72
2021/12/25 10:36:27;;;;;;;;;;;;;;;-3.16;100.00;100636.97;5031824;28;1422;-74
2021/12/25 10:39:00;;;;;;;;;;;;;;;-3.03;100.00;100627.78;5031004;28;988;-75
2021/12/25 10:41:27;;;;;;;;;;;;;;;-3.00;100.00;100626.81;5030905;28;1487;-76
2021/12/25 10:44:09;;;;;;;;;;;;;;;-3.07;100.00;100625.25;5032638;28;966;-76
2021/12/25 10:46:46;;;;;;;;;;;;;;;-3.08;100.00;100636.78;5031621;28;1450;-75
2021/12/25 10:49:12;;;;;;;;;;;;;;;-3.03;100.00;100622.47;5032682;28;907;-75
2021/12/25 10:51:40;;;;;;;;;;;;;;;-3.00;100.00;100618.84;5031990;28;1493;-75
2021/12/25 10:54:07;;;;;;;;;;;;;;;-2.80;100.00;100626.28;5032019;28;1918;-75
2021/12/25 10:56:35;;;;;;;;;;;;;;;-2.73;100.00;100626.97;5031261;28;1482;-74
2021/12/25 10:59:03;;;;;;;;;;;;;;;-2.64;100.00;100636.50;5031970;28;887;-74
2021/12/25 11:01:37;;;;;;;;;;;;;;;-2.52;100.00;100637.00;5030710;28;1447;-73
2021/12/25 11:04:04;;;;;;;;;;;;;;;-2.53;100.00;100624.63;5031686;28;1523;-74
2021/12/25 11:06:30;;;;;;;;;;;;;;;-2.61;100.00;100631.09;5031146;28;1489;-73
2021/12/25 11:08:58;;;;;;;;;;;;;;;-2.68;100.00;100627.72;5031434;28;1548;-73
2021/12/25 11:11:24;;;;;;;;;;;;;;;-2.75;100.00;100631.50;5031605;28;1509;-73
2021/12/25 11:13:52;;;;;;;;;;;;;;;-2.65;100.00;100635.63;5030386;28;1972;-73
2021/12/25 11:16:23;;;;;;;;;;;;;;;-2.62;100.00;100630.22;5030930;28;1521;-73
2021/12/25 11:19:03;;;;;;;;;;;;;;;-2.56;100.00;100632.69;5031612;28;995;-75
2021/12/25 11:21:30;;;;;;;;;;;;;;;-2.53;100.00;100631.75;5030402;28;1573;-74
2021/12/25 11:24:08;;;;;;;;;;;;;;;-2.61;100.00;100631.94;5030831;28;904;-75
2021/12/25 11:26:35;;;;;;;;;;;;;;;-2.54;100.00;100620.25;5031124;28;1489;-74
2021/12/25 11:29:02;;;;;;;;;;;;;;;-2.61;100.00;100625.78;5030769;28;844;-75
2021/12/25 11:31:30;;;;;;;;;;;;;;;-2.63;100.00;100633.78;5014329;28;1498;-75
2021/12/25 11:33:56;;;;;;;;;;;;;;;-2.62;100.00;100624.03;5031461;28;1988;-74
2021/12/25 11:36:23;;;;;;;;;;;;;;;-2.64;100.00;100623.22;5029264;28;1499;-74
2021/12/25 11:38:50;;;;;;;;;;;;;;;-2.59;100.00;100627.47;5031077;28;899;-75
2021/12/25 11:41:18;;;;;;;;;;;;;;;-2.47;100.00;100634.22;5029979;28;1574;-74
2021/12/25 11:43:46;;;;;;;;;;;;;;;-2.09;100.00;100629.56;5029666;28;1506;-73
2021/12/25 11:46:14;;;;;;;;;;;;;;;-1.91;100.00;100628.13;5030775;28;1525;-74
2021/12/25 11:48:40;;;;;;;;;;;;;;;-1.73;100.00;100628.47;5031317;28;978;-74
2021/12/25 11:51:07;;;;;;;;;;;;;;;-1.58;100.00;100622.63;5031188;28;1474;-74
2021/12/25 11:53:44;;;;;;;;;;;;;;;-1.57;100.00;100624.38;5029789;28;1921;-73
2021/12/25 11:58:50;;;;;;;;;;;;;;;-1.66;100.00;100622.03;5031315;28;627;-72
2021/12/25 12:01:31;;;;;;;;;;;;;;;-1.54;100.00;100626.97;5030615;28;1498;-72
2021/12/25 12:03:59;;;;;;;;;;;;;;;-1.61;100.00;100619.22;5029107;28;1006;-73
2021/12/25 12:06:40;;;;;;;;;;;;;;;-1.50;100.00;100625.06;5030086;28;1576;-75
2021/12/25 12:09:09;;;;;;;;;;;;;;;-1.79;100.00;100631.31;5030357;28;1509;-74
2021/12/25 12:11:52;;;;;;;;;;;;;;;-1.86;100.00;100631.53;5021958;28;1466;-74
2021/12/25 12:15:02;;;;;;;;;;;;;;;-1.94;100.00;100628.22;5010734;28;1914;-73
2021/12/25 12:17:50;;;;;;;;;;;;;;;-2.22;100.00;100622.88;4985891;28;1510;-73
2021/12/25 12:20:35;;;;;;;;;;;;;;;-2.30;100.00;100624.88;5029450;28;900;-72
2021/12/25 12:23:17;;;;;;;;;;;;;;;-2.39;100.00;100631.38;5030356;28;1493;-73
2021/12/25 12:25:58;;;;;;;;;;;;;;;-2.53;100.00;100631.75;5030191;28;722;-74
2021/12/25 12:28:40;;;;;;;;;;;;;;;-2.50;100.00;100644.06;5030186;28;1568;-73
2021/12/25 12:31:06;;;;;;;;;;;;;;;-2.55;100.00;100636.25;5012460;28;1283;-72
2021/12/25 12:33:35;;;;;;;;;;;;;;;-2.53;100.00;100634.41;5029999;28;1981;-72
2021/12/25 12:36:01;;;;;;;;;;;;;;;-2.39;100.00;100640.19;5028526;28;1553;-72
2021/12/25 12:38:39;;;;;;;;;;;;;;;-2.19;100.00;100636.09;5030205;28;1478;-73
2021/12/25 12:41:17;;;;;;;;;;;;;;;-1.94;100.00;100636.19;5027048;28;1529;-71
2021/12/25 12:43:53;;;;;;;;;;;;;;;-1.70;100.00;100631.03;5028982;28;1557;-74
2021/12/25 12:46:20;;;;;;;;;;;;;;;-1.28;100.00;100633.22;5029907;28;1332;-74
2021/12/25 12:51:39;;;;;;;;;;;;;;;-0.74;100.00;100642.00;5108529;27;1386;-73
2021/12/25 12:54:05;;;;;;;;;;;;;;;-0.39;100.00;100631.88;5106757;28;1080;-74
2021/12/25 12:56:31;;;;;;;;;;;;;;;0.08;100.00;100633.66;5104507;28;1346;-72
2021/12/25 12:58:58;;;;;;;;;;;;;;;0.57;100.00;100640.63;5088411;28;994;-72
2021/12/25 13:01:25;;;;;;;;;;;;;;;0.86;100.00;100641.22;5088192;28;942;-73
2021/12/25 13:03:55;;;;;;;;;;;;;;;1.32;100.00;100634.75;5095624;28;1328;-74
2021/12/25 13:06:22;;;;;;;;;;;;;;;1.31;100.00;100642.81;5091844;28;1519;-74
2021/12/25 13:08:49;;;;;;;;;;;;;;;1.55;100.00;100642.69;5088012;28;962;-73
2021/12/25 13:11:22;;;;;;;;;;;;;;;1.61;100.00;100650.44;5086410;28;1922;-73
2021/12/25 13:13:52;;;;;;;;;;;;;;;1.72;100.00;100642.78;5086659;28;828;-74
2021/12/25 13:16:22;;;;;;;;;;;;;;;1.15;100.00;100632.81;5087692;28;1321;-74
2021/12/25 13:18:49;;;;;;;;;;;;;;;0.20;100.00;100642.09;5086427;28;947;-73
2021/12/25 13:21:17;;;;;;;;;;;;;;;-0.48;100.00;100636.66;5078200;28;912;-72
2021/12/25 13:23:49;;;;;;;;;;;;;;;-1.22;100.00;100638.31;5077918;28;978;-73
2021/12/25 13:26:19;;;;;;;;;;;;;;;-1.80;100.00;100648.19;5103676;28;1326;-75
2021/12/25 13:28:47;;;;;;;;;;;;;;;-2.17;100.00;100652.00;5070625;28;879;-73
2021/12/25 13:31:15;;;;;;;;;;;;;;;-2.42;100.00;100652.69;5083566;28;1917;-75
2021/12/25 13:33:44;;;;;;;;;;;;;;;-2.67;100.00;100653.41;5092848;22;3582;-76
2021/12/25 13:36:12;;;;;;;;;;;;;;;-2.94;100.00;100652.34;5046171;28;1394;-72
2021/12/25 13:38:46;;;;;;;;;;;;;;;-3.20;100.00;100657.41;5046670;28;1557;-75
2021/12/25 13:41:12;;;;;;;;;;;;;;;-3.41;100.00;100658.84;5047432;28;998;-75
2021/12/25 13:43:40;;;;;;;;;;;;;;;-3.59;100.00;100657.50;5047070;28;1600;-72
2021/12/25 13:46:06;;;;;;;;;;;;;;;-3.71;100.00;100663.97;5047078;28;993;-73
2021/12/25 13:48:36;;;;;;;;;;;;;;;-3.82;100.00;100671.31;5047064;28;1529;-74